Time;durP1;ratioP1;P1;durP2;ratioP2;P2;SDS_P1;SDS_P2;PMS_P1;PMS_P2;Temp;Humidity;BMP_temperature;BMP_pressure;BME280_temperature;BME280_humidity;BME280_pressure;Samples;Min_cycle;Max_cycle;Signal;HPM_P1;HPM_P2
2022/05/01 00:02:41;;;;;;;;;;;;;;;10.42;65.82;100731.16;5005304;28;19928;-65
2022/05/01 00:05:34;;;;;;;;;;;;;;;10.41;65.53;100730.31;5013679;28;19928;-65
2022/05/01 00:08:23;;;;;;;;;;;;;;;10.43;65.89;100730.34;5013873;28;20387;-65
2022/05/01 00:11:13;;;;;;;;;;;;;;;10.42;65.48;100731.16;5013055;28;19956;-65
2022/05/01 00:13:57;;;;;;;;;;;;;;;10.42;65.48;100731.16;5013088;28;19972;-64
2022/05/01 00:16:41;;;;;;;;;;;;;;;10.41;65.54;100730.31;5013819;28;19928;-66
2022/05/01 00:19:33;;;;;;;;;;;;;;;10.38;65.70;100722.44;5012718;28;20019;-65
2022/05/01 00:22:23;;;;;;;;;;;;;;;10.39;65.54;100716.41;5013026;28;19928;-65
2022/05/01 00:25:13;;;;;;;;;;;;;;;10.39;65.93;100719.00;5013973;28;19928;-65
2022/05/01 00:28:02;;;;;;;;;;;;;;;10.40;65.97;100719.88;5012731;28;19928;-65
2022/05/01 00:30:49;;;;;;;;;;;;;;;10.39;65.55;100724.19;5013781;28;19929;-65
2022/05/01 00:36:37;;;;;;;;;;;;;;;10.41;65.84;100713.84;5013863;28;19948;-64
2022/05/01 00:39:21;;;;;;;;;;;;;;;10.40;65.92;100712.09;5013217;28;20350;-64
2022/05/01 00:42:10;;;;;;;;;;;;;;;10.40;65.63;100712.09;5013610;28;20361;-65
2022/05/01 00:44:54;;;;;;;;;;;;;;;10.40;65.89;100714.69;5012672;28;19928;-65
2022/05/01 00:47:40;;;;;;;;;;;;;;;10.39;65.97;100708.66;5013682;28;19928;-64
2022/05/01 00:50:29;;;;;;;;;;;;;;;10.39;65.93;100716.41;5017555;28;20060;-65
2022/05/01 00:53:19;;;;;;;;;;;;;;;10.40;65.55;100709.50;5016320;28;19928;-65
2022/05/01 00:56:08;;;;;;;;;;;;;;;10.40;65.61;100709.50;5017047;28;19967;-65
2022/05/01 00:59:00;;;;;;;;;;;;;;;10.40;66.03;100704.31;5016406;28;19968;-65
2022/05/01 01:01:50;;;;;;;;;;;;;;;10.40;65.79;100709.50;5016510;28;19988;-65
2022/05/01 01:04:37;;;;;;;;;;;;;;;10.40;66.10;100705.22;5002587;28;19976;-64
2022/05/01 01:07:21;;;;;;;;;;;;;;;10.41;66.12;100713.84;5002047;28;20003;-65
2022/05/01 01:10:08;;;;;;;;;;;;;;;10.40;65.84;100712.09;5016728;28;20015;-65
2022/05/01 01:12:55;;;;;;;;;;;;;;;10.41;65.67;100703.50;5016937;28;20426;-65
2022/05/01 01:15:41;;;;;;;;;;;;;;;10.40;65.62;100714.69;5016096;28;19945;-65
2022/05/01 01:18:27;;;;;;;;;;;;;;;10.39;65.80;100702.56;5016856;28;19928;-65
2022/05/01 01:21:18;;;;;;;;;;;;;;;10.39;66.01;100711.25;5015604;28;19927;-65
2022/05/01 01:24:13;;;;;;;;;;;;;;;10.40;65.73;100712.09;5001568;28;19928;-65
2022/05/01 01:27:07;;;;;;;;;;;;;;;10.39;65.77;100712.94;5001680;28;20019;-65
2022/05/01 01:33:04;;;;;;;;;;;;;;;10.39;65.77;100699.97;5016687;28;19929;-65
2022/05/01 01:35:54;;;;;;;;;;;;;;;10.39;65.82;100700.88;5001648;28;20017;-65
2022/05/01 01:38:47;;;;;;;;;;;;;;;10.39;66.22;100702.56;5015915;28;20012;-65
2022/05/01 01:41:32;;;;;;;;;;;;;;;10.38;65.79;100701.72;5016307;28;20021;-65
2022/05/01 01:44:20;;;;;;;;;;;;;;;10.38;65.96;100701.72;5016587;28;19948;-65
2022/05/01 01:47:10;;;;;;;;;;;;;;;10.38;65.85;100699.13;5001014;28;19928;-65
2022/05/01 01:49:57;;;;;;;;;;;;;;;10.38;66.13;100693.00;5001687;28;20304;-65
2022/05/01 01:52:46;;;;;;;;;;;;;;;10.39;66.12;100705.16;5015080;28;20301;-66
2022/05/01 01:55:38;;;;;;;;;;;;;;;10.38;65.83;100695.59;5016299;28;19975;-65
2022/05/01 01:58:31;;;;;;;;;;;;;;;10.39;66.05;100699.97;5016125;28;19944;-65
2022/05/01 02:01:18;;;;;;;;;;;;;;;10.39;66.10;100699.97;5015005;28;19928;-65
2022/05/01 02:04:10;;;;;;;;;;;;;;;10.38;66.28;100691.34;5001287;28;19927;-65
2022/05/01 02:06:54;;;;;;;;;;;;;;;10.38;66.13;100699.13;5000936;28;19928;-65
2022/05/01 02:09:38;;;;;;;;;;;;;;;10.38;66.07;100693.94;5000607;28;20411;-65
2022/05/01 02:12:28;;;;;;;;;;;;;;;10.38;66.26;100693.00;5000402;28;19971;-65
2022/05/01 02:15:20;;;;;;;;;;;;;;;10.36;66.37;100701.63;5000831;28;19937;-65
2022/05/01 02:18:07;;;;;;;;;;;;;;;10.37;66.15;100702.50;5000737;28;19927;-65
2022/05/01 02:24:03;;;;;;;;;;;;;;;10.34;65.85;100694.66;5015391;28;20288;-65
2022/05/01 02:26:48;;;;;;;;;;;;;;;10.33;66.32;100698.06;5015640;28;19929;-65
2022/05/01 02:29:37;;;;;;;;;;;;;;;10.32;66.18;100696.31;5015364;28;20026;-65
2022/05/01 02:32:21;;;;;;;;;;;;;;;10.31;66.10;100689.38;5015465;28;19983;-65
2022/05/01 02:35:13;;;;;;;;;;;;;;;10.31;66.33;100686.78;5015634;28;19945;-65
2022/05/01 02:37:57;;;;;;;;;;;;;;;10.31;66.37;100684.19;5000585;28;19992;-65
2022/05/01 02:40:44;;;;;;;;;;;;;;;10.31;66.38;100689.38;5015254;28;19943;-64
2022/05/01 02:43:31;;;;;;;;;;;;;;;10.31;66.38;100679.00;5000113;28;20399;-65
2022/05/01 02:46:24;;;;;;;;;;;;;;;10.30;65.97;100678.16;5000516;28;19928;-65
2022/05/01 02:49:14;;;;;;;;;;;;;;;10.29;66.42;100678.97;5000407;28;19929;-65
2022/05/01 02:52:03;;;;;;;;;;;;;;;10.28;65.97;100677.22;4999839;28;20415;-65
2022/05/01 02:54:50;;;;;;;;;;;;;;;10.30;66.41;100672.06;5014940;28;19929;-65
2022/05/01 02:57:37;;;;;;;;;;;;;;;10.30;66.48;100672.97;5015061;28;20344;-66
2022/05/01 03:00:22;;;;;;;;;;;;;;;10.28;66.38;100664.28;5000332;28;20403;-65
2022/05/01 03:03:05;;;;;;;;;;;;;;;10.28;66.36;100669.44;5009574;28;19929;-65
2022/05/01 03:05:58;;;;;;;;;;;;;;;10.29;66.05;100663.44;5014522;28;19928;-65
2022/05/01 03:08:51;;;;;;;;;;;;;;;10.29;66.02;100655.66;5013514;28;19929;-65
2022/05/01 03:11:38;;;;;;;;;;;;;;;10.29;66.42;100659.94;5013293;28;19928;-65
2022/05/01 03:14:22;;;;;;;;;;;;;;;10.29;66.13;100654.78;5014429;28;19929;-65
2022/05/01 03:17:11;;;;;;;;;;;;;;;10.29;66.47;100652.19;5014569;28;19929;-65
2022/05/01 03:23:04;;;;;;;;;;;;;;;10.27;66.46;100651.28;5014067;28;20063;-65
2022/05/01 03:25:51;;;;;;;;;;;;;;;10.27;66.53;100653.88;5013871;28;20056;-66
2022/05/01 03:28:38;;;;;;;;;;;;;;;10.26;66.68;100652.97;5013556;28;19929;-65
2022/05/01 03:31:22;;;;;;;;;;;;;;;10.26;66.50;100658.16;5013399;28;20427;-64
2022/05/01 03:34:20;;;;;;;;;;;;;;;10.25;66.44;100647.78;5013430;28;19976;-65
2022/05/01 03:37:09;;;;;;;;;;;;;;;10.25;66.13;100651.22;5014095;28;19952;-65
2022/05/01 03:39:53;;;;;;;;;;;;;;;10.25;66.54;100651.22;5013118;28;19928;-65
2022/05/01 03:42:46;;;;;;;;;;;;;;;10.24;66.50;100646.88;5014233;28;19943;-64
2022/05/01 03:45:35;;;;;;;;;;;;;;;10.24;66.55;100654.66;5013006;28;19988;-65
2022/05/01 03:48:22;;;;;;;;;;;;;;;10.24;66.55;100654.66;5012773;28;19975;-64
2022/05/01 03:51:12;;;;;;;;;;;;;;;10.23;66.48;100655.47;5013193;28;19927;-65
2022/05/01 03:54:02;;;;;;;;;;;;;;;10.22;66.51;100645.97;5014105;28;20012;-64
2022/05/01 03:56:49;;;;;;;;;;;;;;;10.23;66.26;100639.94;5013913;28;19928;-64
2022/05/01 03:59:33;;;;;;;;;;;;;;;10.21;66.59;100639.91;5014092;28;20304;-65
2022/05/01 04:02:22;;;;;;;;;;;;;;;10.21;66.65;100639.03;5014168;28;19928;-65
2022/05/01 04:05:13;;;;;;;;;;;;;;;10.20;66.39;100639.84;5013066;28;19940;-65
2022/05/01 04:07:56;;;;;;;;;;;;;;;10.19;66.58;100633.81;4998804;28;19929;-65
2022/05/01 04:10:47;;;;;;;;;;;;;;;10.20;66.32;100637.25;4999029;28;20344;-66
2022/05/01 04:13:35;;;;;;;;;;;;;;;10.19;66.86;100643.31;4998877;28;19929;-65
2022/05/01 04:16:19;;;;;;;;;;;;;;;10.18;66.66;100641.56;4998861;28;19928;-65
2022/05/01 04:19:07;;;;;;;;;;;;;;;10.18;66.76;100645.00;5013832;28;19963;-65
2022/05/01 04:22:00;;;;;;;;;;;;;;;10.17;66.55;100639.78;4999317;28;19928;-65
2022/05/01 04:24:45;;;;;;;;;;;;;;;10.17;66.30;100651.03;5017795;28;19972;-64
2022/05/01 04:27:31;;;;;;;;;;;;;;;10.17;66.65;100645.84;5002367;28;20354;-65
2022/05/01 04:30:25;;;;;;;;;;;;;;;10.17;66.68;100644.97;5017664;28;20451;-65
2022/05/01 04:33:10;;;;;;;;;;;;;;;10.17;66.46;100645.84;5017988;28;20376;-65
2022/05/01 04:36:00;;;;;;;;;;;;;;;10.18;66.82;100644.16;5002763;28;19975;-64
2022/05/01 04:38:52;;;;;;;;;;;;;;;10.18;66.67;100638.97;5016716;28;19979;-64
2022/05/01 04:41:45;;;;;;;;;;;;;;;10.17;66.64;100651.03;5002660;28;20399;-65
2022/05/01 04:44:31;;;;;;;;;;;;;;;10.17;66.81;100645.84;5017240;28;20459;-65
2022/05/01 04:47:21;;;;;;;;;;;;;;;10.17;66.72;100651.03;5017932;28;19928;-65
2022/05/01 04:50:05;;;;;;;;;;;;;;;10.17;66.64;100653.59;5002422;28;19929;-64
2022/05/01 04:52:49;;;;;;;;;;;;;;;10.17;66.52;100642.38;5017244;28;19929;-65
2022/05/01 04:55:47;;;;;;;;;;;;;;;10.17;66.73;100650.16;5017174;28;19967;-65
2022/05/01 04:58:31;;;;;;;;;;;;;;;10.16;66.69;100654.44;5016906;28;19929;-65
2022/05/01 05:01:21;;;;;;;;;;;;;;;10.16;66.89;100656.16;5016719;28;19971;-65
2022/05/01 05:04:11;;;;;;;;;;;;;;;10.17;66.64;100650.16;5001756;28;20019;-65
2022/05/01 05:07:00;;;;;;;;;;;;;;;10.17;66.95;100656.19;5016844;28;20045;-65
2022/05/01 05:09:56;;;;;;;;;;;;;;;10.17;66.69;100656.19;5002361;28;20451;-65
2022/05/01 05:12:44;;;;;;;;;;;;;;;10.17;66.97;100658.78;5002365;28;19928;-64
2022/05/01 05:15:28;;;;;;;;;;;;;;;10.17;66.70;100657.94;5002153;28;20280;-64
2022/05/01 05:18:12;;;;;;;;;;;;;;;10.16;66.98;100663.94;5016789;28;20285;-65
2022/05/01 05:21:04;;;;;;;;;;;;;;;10.14;66.58;100661.28;5016659;28;19984;-65
2022/05/01 05:23:51;;;;;;;;;;;;;;;10.14;66.94;100668.19;5001693;28;20003;-64
2022/05/01 05:26:41;;;;;;;;;;;;;;;10.15;66.65;100667.38;5016028;28;19967;-64
2022/05/01 05:29:30;;;;;;;;;;;;;;;10.14;66.71;100668.19;5001412;28;20356;-64
2022/05/01 05:32:20;;;;;;;;;;;;;;;10.14;66.88;100668.19;5001780;28;20451;-65
2022/05/01 05:35:13;;;;;;;;;;;;;;;10.12;66.72;100662.94;5001783;28;19967;-65
2022/05/01 05:38:05;;;;;;;;;;;;;;;10.12;66.65;100667.28;5001719;28;19928;-65
2022/05/01 05:40:52;;;;;;;;;;;;;;;10.12;66.81;100668.13;5001490;28;19929;-64
2022/05/01 05:43:37;;;;;;;;;;;;;;;10.12;66.96;100672.44;5015696;28;20003;-64
2022/05/01 05:46:26;;;;;;;;;;;;;;;10.12;66.79;100680.22;5001096;28;20407;-64
2022/05/01 05:49:19;;;;;;;;;;;;;;;10.13;66.85;100671.63;5001640;28;19928;-65
2022/05/01 05:52:04;;;;;;;;;;;;;;;10.14;67.04;100661.28;5001142;28;19984;-65
2022/05/01 05:54:53;;;;;;;;;;;;;;;10.13;67.18;100666.44;5015951;28;19928;-64
2022/05/01 05:57:42;;;;;;;;;;;;;;;10.14;67.16;100674.25;5016261;28;19993;-64
2022/05/01 06:00:32;;;;;;;;;;;;;;;10.15;66.75;100667.38;5001506;28;19927;-65
2022/05/01 06:03:21;;;;;;;;;;;;;;;10.15;67.15;100677.72;5012099;28;19928;-65
2022/05/01 06:06:15;;;;;;;;;;;;;;;10.13;66.95;100669.91;5014729;28;19928;-64
2022/05/01 06:08:59;;;;;;;;;;;;;;;10.14;67.08;100686.31;5014854;28;19968;-64
2022/05/01 06:11:48;;;;;;;;;;;;;;;10.14;67.11;100675.97;5015530;28;19967;-65
2022/05/01 06:14:32;;;;;;;;;;;;;;;10.13;67.15;100681.97;5014975;28;19971;-65
2022/05/01 06:17:16;;;;;;;;;;;;;;;10.13;67.16;100682.84;5015394;28;19929;-64
2022/05/01 06:20:00;;;;;;;;;;;;;;;10.11;67.37;100688.81;5014862;28;19976;-64
2022/05/01 06:22:53;;;;;;;;;;;;;;;10.11;67.19;100689.72;5015347;28;20523;-65
2022/05/01 06:25:43;;;;;;;;;;;;;;;10.10;67.21;100689.66;5014996;28;20285;-64
2022/05/01 06:28:30;;;;;;;;;;;;;;;10.12;67.29;100685.41;5014345;28;19944;-64
2022/05/01 06:31:15;;;;;;;;;;;;;;;10.09;67.37;100686.22;5015047;28;19947;-65
2022/05/01 06:34:02;;;;;;;;;;;;;;;10.09;67.00;100682.72;5014930;28;19929;-65
2022/05/01 06:36:55;;;;;;;;;;;;;;;10.08;67.31;100681.84;5015060;28;19929;-65
2022/05/01 06:39:39;;;;;;;;;;;;;;;10.09;67.24;100677.53;5015598;28;19928;-64
2022/05/01 06:42:28;;;;;;;;;;;;;;;10.09;67.38;100682.72;5014578;28;19928;-64
2022/05/01 06:45:21;;;;;;;;;;;;;;;10.09;67.19;100682.72;5014057;28;20269;-65
2022/05/01 06:48:13;;;;;;;;;;;;;;;10.08;67.12;100686.16;5014157;28;19929;-65
2022/05/01 06:51:03;;;;;;;;;;;;;;;10.08;67.17;100683.56;5014192;28;20391;-64
2022/05/01 06:53:52;;;;;;;;;;;;;;;10.08;67.56;100688.72;5014495;28;19929;-64
2022/05/01 06:56:46;;;;;;;;;;;;;;;10.08;67.44;100691.31;5013713;28;19983;-65
2022/05/01 06:59:29;;;;;;;;;;;;;;;10.09;67.55;100690.50;5014197;28;20076;-65
2022/05/01 07:02:14;;;;;;;;;;;;;;;10.06;67.44;100686.97;5014866;28;19948;-65
2022/05/01 07:05:04;;;;;;;;;;;;;;;10.07;67.37;100690.47;5014621;28;19929;-65
2022/05/01 07:07:54;;;;;;;;;;;;;;;10.08;67.32;100691.31;5014554;28;19963;-65
2022/05/01 07:10:44;;;;;;;;;;;;;;;10.05;67.50;100690.41;5000087;28;19929;-65
2022/05/01 07:13:35;;;;;;;;;;;;;;;10.05;67.34;100689.53;5014466;28;19928;-65
2022/05/01 07:16:24;;;;;;;;;;;;;;;10.06;67.61;100694.75;4999923;28;19928;-65
2022/05/01 07:19:09;;;;;;;;;;;;;;;10.06;67.67;100701.66;4999479;28;19972;-65
2022/05/01 07:21:52;;;;;;;;;;;;;;;10.05;67.65;100703.34;5014363;28;19929;-65
2022/05/01 07:24:42;;;;;;;;;;;;;;;10.07;67.64;100706.00;5000190;28;19928;-64
2022/05/01 07:27:31;;;;;;;;;;;;;;;10.09;67.55;100698.25;4999272;28;19975;-64
2022/05/01 07:30:15;;;;;;;;;;;;;;;10.08;67.64;100694.81;4999830;28;19968;-64
2022/05/01 07:32:59;;;;;;;;;;;;;;;10.06;67.66;100697.34;4999631;28;19972;-64
2022/05/01 07:35:43;;;;;;;;;;;;;;;10.09;67.67;100699.16;5014493;28;19976;-64
2022/05/01 07:38:27;;;;;;;;;;;;;;;10.09;67.88;100703.44;5014082;28;20360;-65
2022/05/01 07:41:19;;;;;;;;;;;;;;;10.08;67.84;100702.59;5014153;28;19971;-65
2022/05/01 07:44:03;;;;;;;;;;;;;;;10.08;67.91;100701.69;4999064;28;20068;-65
2022/05/01 07:46:47;;;;;;;;;;;;;;;10.09;67.84;100696.56;5014073;28;20335;-65
2022/05/01 07:49:31;;;;;;;;;;;;;;;10.09;67.76;100690.50;5014520;28;20373;-65
2022/05/01 07:52:16;;;;;;;;;;;;;;;10.09;67.71;100690.50;5014207;28;19948;-64
2022/05/01 07:55:01;;;;;;;;;;;;;;;10.09;67.66;100695.66;5014457;28;20281;-64
2022/05/01 07:57:51;;;;;;;;;;;;;;;10.08;67.63;100688.72;5000263;28;20442;-64
2022/05/01 08:00:40;;;;;;;;;;;;;;;10.09;67.92;100698.25;5003577;28;19948;-65
2022/05/01 08:06:38;;;;;;;;;;;;;;;10.10;67.93;100698.31;5018075;28;19967;-64
2022/05/01 08:09:25;;;;;;;;;;;;;;;10.11;67.93;100700.09;5016967;28;19967;-64
2022/05/01 08:12:10;;;;;;;;;;;;;;;10.10;67.97;100693.16;5018352;28;19976;-64
2022/05/01 08:14:53;;;;;;;;;;;;;;;10.11;67.81;100692.31;5016492;28;19976;-64
2022/05/01 08:17:43;;;;;;;;;;;;;;;10.13;67.87;100689.75;5017518;28;19928;-64
2022/05/01 08:23:39;;;;;;;;;;;;;;;10.13;67.80;100702.69;5017563;28;20396;-64
2022/05/01 08:26:23;;;;;;;;;;;;;;;10.14;67.74;100704.47;5016542;28;20020;-65
2022/05/01 08:29:16;;;;;;;;;;;;;;;10.15;67.92;100698.44;5016544;28;19928;-65
2022/05/01 08:32:06;;;;;;;;;;;;;;;10.13;68.06;100698.38;5016918;28;19928;-65
2022/05/01 08:34:55;;;;;;;;;;;;;;;10.15;67.96;100688.94;5016410;28;20446;-66
2022/05/01 08:37:40;;;;;;;;;;;;;;;10.15;67.99;100701.91;5016381;28;19929;-65
2022/05/01 08:40:30;;;;;;;;;;;;;;;10.15;67.74;100694.13;5017310;28;20018;-65
2022/05/01 08:43:18;;;;;;;;;;;;;;;10.16;67.90;100687.25;5016757;28;19928;-65
2022/05/01 08:46:20;;;;;;;;;;;;;;;10.16;68.03;100693.28;5017440;28;20348;-65
2022/05/01 08:49:05;;;;;;;;;;;;;;;10.16;67.82;100690.72;5017620;28;19928;-65
2022/05/01 08:51:50;;;;;;;;;;;;;;;10.19;67.97;100693.38;5017553;28;19975;-65
2022/05/01 08:54:40;;;;;;;;;;;;;;;10.19;67.86;100689.94;5016962;28;19967;-65
2022/05/01 08:57:33;;;;;;;;;;;;;;;10.19;68.10;100692.53;5016487;28;20095;-65
2022/05/01 09:00:17;;;;;;;;;;;;;;;10.20;68.03;100702.03;5016278;28;19933;-65
2022/05/01 09:03:04;;;;;;;;;;;;;;;10.19;67.72;100695.13;5015821;28;19974;-65
2022/05/01 09:05:53;;;;;;;;;;;;;;;10.21;68.04;100698.59;5016938;28;20433;-65
2022/05/01 09:08:38;;;;;;;;;;;;;;;10.20;67.93;100697.75;5015512;28;19967;-65
2022/05/01 09:14:31;;;;;;;;;;;;;;;10.20;68.01;100692.56;5016406;28;20016;-65
2022/05/01 09:17:24;;;;;;;;;;;;;;;10.23;67.91;100696.06;5016818;28;20035;-65
2022/05/01 09:20:14;;;;;;;;;;;;;;;10.22;68.04;100697.75;5016036;28;19929;-65
2022/05/01 09:23:05;;;;;;;;;;;;;;;10.23;67.60;100686.56;5015956;28;20386;-65
2022/05/01 09:25:57;;;;;;;;;;;;;;;10.24;68.02;100697.84;5015849;28;19983;-65
2022/05/01 09:28:50;;;;;;;;;;;;;;;10.25;67.96;100690.09;5016046;28;20404;-65
2022/05/01 09:31:44;;;;;;;;;;;;;;;10.24;67.92;100697.84;5016324;28;20301;-65
2022/05/01 09:34:30;;;;;;;;;;;;;;;10.26;67.63;100696.16;5015843;28;20060;-65
2022/05/01 09:37:22;;;;;;;;;;;;;;;10.26;67.89;100696.16;5016302;28;19929;-65
2022/05/01 09:40:07;;;;;;;;;;;;;;;10.26;67.91;100701.34;5015252;28;20046;-65
2022/05/01 09:42:51;;;;;;;;;;;;;;;10.24;68.00;100693.50;5015545;28;20324;-65
2022/05/01 09:45:35;;;;;;;;;;;;;;;10.25;67.88;100699.59;5016059;28;19928;-65
2022/05/01 09:48:24;;;;;;;;;;;;;;;10.25;68.06;100700.44;5015738;28;19975;-65
2022/05/01 09:51:18;;;;;;;;;;;;;;;10.25;67.97;100695.25;5015145;28;19968;-65
2022/05/01 09:54:03;;;;;;;;;;;;;;;10.25;67.83;100705.63;5015967;28;19928;-65
2022/05/01 09:56:54;;;;;;;;;;;;;;;10.25;67.93;100695.25;5015878;28;20391;-65
2022/05/01 09:59:47;;;;;;;;;;;;;;;10.26;67.52;100694.44;5015270;28;19967;-65
2022/05/01 10:02:33;;;;;;;;;;;;;;;10.27;67.52;100698.78;5015893;28;19968;-65
2022/05/01 10:05:26;;;;;;;;;;;;;;;10.27;67.92;100695.34;5015756;28;19964;-65
2022/05/01 10:08:15;;;;;;;;;;;;;;;10.26;67.95;100697.03;5015687;28;19929;-65
2022/05/01 10:10:59;;;;;;;;;;;;;;;10.26;67.74;100696.16;4980660;28;20309;-64
2022/05/01 10:13:44;;;;;;;;;;;;;;;10.26;67.97;100689.25;4975465;28;19969;-66
2022/05/01 10:16:28;;;;;;;;;;;;;;;10.25;67.88;100684.03;4974575;28;19976;-66
2022/05/01 10:19:25;;;;;;;;;;;;;;;10.25;67.48;100682.31;4975663;28;20290;-64
2022/05/01 10:22:09;;;;;;;;;;;;;;;10.27;67.80;100688.41;4975010;28;20391;-64
2022/05/01 10:24:56;;;;;;;;;;;;;;;10.28;67.73;100682.41;4976597;28;19945;-65
2022/05/01 10:27:46;;;;;;;;;;;;;;;10.29;67.83;100675.50;4975948;28;20493;-66
2022/05/01 10:33:44;;;;;;;;;;;;;;;10.31;67.77;100674.72;4976328;28;20013;-65
2022/05/01 10:36:34;;;;;;;;;;;;;;;10.30;67.98;100672.97;4975674;28;19929;-64
2022/05/01 10:39:28;;;;;;;;;;;;;;;10.29;67.79;100666.03;4976185;28;19985;-65
2022/05/01 10:42:33;;;;;;;;;;;;;;;10.30;67.73;100666.88;4974790;28;20464;-65
2022/05/01 10:45:26;;;;;;;;;;;;;;;10.30;67.79;100659.13;4975132;28;20301;-65
2022/05/01 10:48:12;;;;;;;;;;;;;;;10.30;67.98;100660.00;4974786;28;19996;-64
2022/05/01 10:51:16;;;;;;;;;;;;;;;10.31;67.66;100656.59;4975304;28;19980;-66
2022/05/01 10:54:15;;;;;;;;;;;;;;;10.34;67.63;100654.09;4975713;28;20389;-64
2022/05/01 10:57:07;;;;;;;;;;;;;;;10.34;67.87;100645.41;4974748;28;19929;-65
2022/05/01 11:00:05;;;;;;;;;;;;;;;10.35;67.66;100649.75;4975112;28;19928;-64
2022/05/01 11:02:58;;;;;;;;;;;;;;;10.35;67.43;100640.25;4974513;28;19929;-65
2022/05/01 11:05:55;;;;;;;;;;;;;;;10.36;67.77;100644.59;4975267;28;20008;-65
2022/05/01 11:08:45;;;;;;;;;;;;;;;10.35;67.98;100639.41;4975174;28;19972;-65
2022/05/01 11:11:42;;;;;;;;;;;;;;;10.34;67.77;100641.13;4973446;28;22514;-65
2022/05/01 11:14:49;;;;;;;;;;;;;;;10.38;67.62;100633.41;4974675;28;19929;-65
2022/05/01 11:17:53;;;;;;;;;;;;;;;10.35;67.92;100619.53;4988650;28;19948;-66
2022/05/01 11:20:38;;;;;;;;;;;;;;;10.36;67.93;100628.19;4975695;28;19984;-65
2022/05/01 11:23:29;;;;;;;;;;;;;;;10.36;67.70;100636.84;4974727;28;19977;-66
2022/05/01 11:26:17;;;;;;;;;;;;;;;10.34;67.64;100623.00;4975297;28;19928;-66
2022/05/01 11:29:09;;;;;;;;;;;;;;;10.35;67.65;100616.09;4975230;28;19969;-66
2022/05/01 11:31:53;;;;;;;;;;;;;;;10.33;67.92;100626.41;4975513;28;19945;-65
2022/05/01 11:34:47;;;;;;;;;;;;;;;10.34;67.52;100622.09;4987585;28;19929;-66
2022/05/01 11:37:45;;;;;;;;;;;;;;;10.33;67.78;100610.88;4974607;28;19947;-65
2022/05/01 11:40:35;;;;;;;;;;;;;;;10.34;67.66;100610.03;4974170;28;19944;-65
2022/05/01 11:43:26;;;;;;;;;;;;;;;10.34;67.90;100604.84;4974140;28;20013;-66
2022/05/01 11:46:18;;;;;;;;;;;;;;;10.35;67.88;100601.41;4974191;28;19980;-65
2022/05/01 11:49:05;;;;;;;;;;;;;;;10.35;67.63;100598.81;4988264;28;19928;-65
2022/05/01 11:51:52;;;;;;;;;;;;;;;10.39;67.70;100593.75;4974899;28;20073;-66
2022/05/01 11:54:37;;;;;;;;;;;;;;;10.38;67.50;100595.47;4974135;28;20301;-65
2022/05/01 12:03:36;;;;;;;;;;;;;;;10.39;67.88;100592.03;4994425;28;20133;-65
2022/05/01 12:06:29;;;;;;;;;;;;;;;10.39;67.62;100591.16;4979556;28;20389;-65
2022/05/01 12:09:18;;;;;;;;;;;;;;;10.40;67.46;100585.13;4979516;28;19944;-65
2022/05/01 12:12:09;;;;;;;;;;;;;;;10.41;67.54;100581.72;4979598;28;19972;-65
2022/05/01 12:14:53;;;;;;;;;;;;;;;10.40;67.61;100580.84;4994213;28;19928;-65
2022/05/01 12:17:40;;;;;;;;;;;;;;;10.39;67.62;100573.91;4978962;28;20031;-66
2022/05/01 12:20:33;;;;;;;;;;;;;;;10.40;67.57;100575.66;4992869;28;20079;-65
2022/05/01 12:23:23;;;;;;;;;;;;;;;10.40;67.52;100578.25;4979401;28;19929;-65
2022/05/01 12:26:15;;;;;;;;;;;;;;;10.41;67.74;100569.66;4979641;28;19972;-65
2022/05/01 12:29:08;;;;;;;;;;;;;;;10.41;67.61;100569.66;4979591;28;19929;-65
2022/05/01 12:32:06;;;;;;;;;;;;;;;10.41;67.91;100571.34;4979838;28;19928;-65
2022/05/01 12:34:50;;;;;;;;;;;;;;;10.41;67.56;100560.97;4979358;28;19928;-65
2022/05/01 12:37:35;;;;;;;;;;;;;;;10.41;67.51;100563.56;4979202;28;19972;-64
2022/05/01 12:46:32;;;;;;;;;;;;;;;10.41;67.75;100554.09;4997623;28;19929;-65
2022/05/01 12:49:26;;;;;;;;;;;;;;;10.41;67.69;100551.50;4998019;28;19944;-65
2022/05/01 12:52:28;;;;;;;;;;;;;;;10.41;67.28;100554.09;4983221;28;19944;-65
2022/05/01 12:55:17;;;;;;;;;;;;;;;10.42;67.67;100544.59;4997999;28;19968;-65
2022/05/01 12:58:12;;;;;;;;;;;;;;;10.41;67.73;100543.72;4982747;28;20408;-65
2022/05/01 13:00:57;;;;;;;;;;;;;;;10.42;67.72;100531.63;4997603;28;19928;-65
2022/05/01 13:03:40;;;;;;;;;;;;;;;10.47;67.52;100530.03;4958816;29;20424;-65
2022/05/01 13:06:24;;;;;;;;;;;;;;;10.47;67.49;100527.44;4959025;29;20377;-66
2022/05/01 13:09:09;;;;;;;;;;;;;;;10.48;67.64;100524.03;4958980;29;19969;-65
2022/05/01 13:12:03;;;;;;;;;;;;;;;10.48;67.47;100527.47;4957697;29;19938;-65
2022/05/01 13:15:02;;;;;;;;;;;;;;;10.50;67.50;100533.56;4957862;29;19929;-64
2022/05/01 13:17:59;;;;;;;;;;;;;;;10.49;67.31;100529.22;4958337;29;20025;-65
2022/05/01 13:20:43;;;;;;;;;;;;;;;10.50;67.73;100530.13;4957949;29;20354;-65
2022/05/01 13:23:27;;;;;;;;;;;;;;;10.51;67.50;100526.66;4957111;29;20096;-65
2022/05/01 13:26:11;;;;;;;;;;;;;;;10.52;67.50;100525.81;4957731;29;19977;-65
2022/05/01 13:28:55;;;;;;;;;;;;;;;10.51;67.72;100526.66;4970962;28;20302;-66
2022/05/01 13:31:41;;;;;;;;;;;;;;;10.53;67.23;100526.72;4957071;29;19977;-67
2022/05/01 13:34:27;;;;;;;;;;;;;;;10.50;67.30;100519.75;4958006;29;20393;-64
2022/05/01 13:37:12;;;;;;;;;;;;;;;10.51;67.41;100517.19;4957331;29;20406;-65
2022/05/01 13:46:01;;;;;;;;;;;;;;;10.50;67.38;100509.41;4957553;29;19969;-65
2022/05/01 13:48:45;;;;;;;;;;;;;;;10.48;67.63;100506.75;4957383;29;19932;-65
2022/05/01 13:51:31;;;;;;;;;;;;;;;10.49;67.51;100499.88;4956874;29;19929;-65
2022/05/01 13:54:16;;;;;;;;;;;;;;;10.48;67.54;100495.53;4956977;29;19933;-65
2022/05/01 13:57:02;;;;;;;;;;;;;;;10.49;67.36;100497.28;4955552;29;20411;-65
2022/05/01 13:59:47;;;;;;;;;;;;;;;10.48;67.71;100486.00;4957096;29;20381;-66
2022/05/01 14:02:31;;;;;;;;;;;;;;;10.50;67.55;100483.47;4978430;28;19944;-65
2022/05/01 14:05:15;;;;;;;;;;;;;;;10.53;67.25;100482.66;4996157;28;19952;-64
2022/05/01 14:08:01;;;;;;;;;;;;;;;10.55;67.70;100481.00;4981904;28;19928;-65
2022/05/01 14:10:51;;;;;;;;;;;;;;;10.56;67.36;100481.00;4996383;28;19948;-66
2022/05/01 14:13:38;;;;;;;;;;;;;;;10.58;67.21;100474.16;4981775;28;19941;-65
2022/05/01 14:16:25;;;;;;;;;;;;;;;10.59;67.44;100478.50;4981240;28;20396;-65
2022/05/01 14:19:16;;;;;;;;;;;;;;;10.59;67.29;100478.50;4996070;28;20428;-65
2022/05/01 14:22:00;;;;;;;;;;;;;;;10.60;67.45;100477.66;4981112;28;20337;-65
2022/05/01 14:24:45;;;;;;;;;;;;;;;10.61;67.22;100471.63;4981630;28;19972;-65
2022/05/01 14:27:34;;;;;;;;;;;;;;;10.60;67.67;100477.66;4995983;28;19928;-66
2022/05/01 14:30:18;;;;;;;;;;;;;;;10.61;67.66;100471.63;4980928;28;20432;-64
2022/05/01 14:33:10;;;;;;;;;;;;;;;10.62;67.17;100467.31;4996169;28;19929;-65
2022/05/01 14:36:00;;;;;;;;;;;;;;;10.61;67.59;100458.66;4996041;28;20015;-65
2022/05/01 14:38:54;;;;;;;;;;;;;;;10.61;67.25;100462.97;4980767;28;19929;-65
2022/05/01 14:41:41;;;;;;;;;;;;;;;10.60;67.47;100464.69;4981117;28;19929;-65
2022/05/01 14:44:46;;;;;;;;;;;;;;;10.60;67.21;100466.41;4995184;28;19956;-65
2022/05/01 14:47:43;;;;;;;;;;;;;;;10.62;67.27;100459.53;4995188;28;19952;-65
2022/05/01 14:50:35;;;;;;;;;;;;;;;10.61;67.21;100456.09;4981003;28;19929;-65
2022/05/01 14:53:22;;;;;;;;;;;;;;;10.63;67.66;100458.69;4980998;28;19970;-65
2022/05/01 14:56:06;;;;;;;;;;;;;;;10.63;67.16;100457.00;4980353;28;20373;-65
2022/05/01 15:08:13;;;;;;;;;;;;;;;10.62;67.48;100452.66;4994404;28;19933;-66
2022/05/01 15:10:58;;;;;;;;;;;;;;;10.62;67.10;100454.34;4995325;28;20017;-65
2022/05/01 15:13:44;;;;;;;;;;;;;;;10.62;67.29;100449.16;4994969;28;19968;-65
2022/05/01 15:16:55;;;;;;;;;;;;;;;10.62;67.13;100444.88;4995265;28;20384;-65
2022/05/01 15:19:44;;;;;;;;;;;;;;;10.62;67.26;100436.19;4980469;28;19976;-65